sensor_id;sensor_type;location;lat;lon;timestamp;temperature;humidity
21622;DHT22;10973;46.706;12.340;2023-09-19T00:00:23;13.30;99.90
21622;DHT22;10973;46.706;12.340;2023-09-19T00:02:58;13.30;99.90
21622;DHT22;10973;46.706;12.340;2023-09-19T00:05:29;13.30;99.90
21622;DHT22;10973;46.706;12.340;2023-09-19T00:07:57;13.30;99.90
21622;DHT22;10973;46.706;12.340;2023-09-19T00:10:26;13.30;99.90
21622;DHT22;10973;46.706;12.340;2023-09-19T00:12:55;13.10;99.90
21622;DHT22;10973;46.706;12.340;2023-09-19T00:15:23;13.10;99.90
21622;DHT22;10973;46.706;12.340;2023-09-19T00:17:51;12.70;99.90
21622;DHT22;10973;46.706;12.340;2023-09-19T00:20:19;14.20;99.90
21622;DHT22;10973;46.706;12.340;2023-09-19T00:22:50;13.00;99.90
21622;DHT22;10973;46.706;12.340;2023-09-19T00:25:18;13.00;99.90
21622;DHT22;10973;46.706;12.340;2023-09-19T00:27:47;12.90;99.90
21622;DHT22;10973;46.706;12.340;2023-09-19T00:30:15;12.80;99.90
21622;DHT22;10973;46.706;12.340;2023-09-19T00:32:42;12.80;99.90
21622;DHT22;10973;46.706;12.340;2023-09-19T00:35:10;12.80;99.90
21622;DHT22;10973;46.706;12.340;2023-09-19T00:37:37;12.80;99.90
21622;DHT22;10973;46.706;12.340;2023-09-19T00:40:07;12.70;99.90
21622;DHT22;10973;46.706;12.340;2023-09-19T00:42:36;12.80;99.90
21622;DHT22;10973;46.706;12.340;2023-09-19T00:45:04;12.80;99.90
21622;DHT22;10973;46.706;12.340;2023-09-19T00:47:33;12.70;99.90
21622;DHT22;10973;46.706;12.340;2023-09-19T00:50:01;12.70;99.90
21622;DHT22;10973;46.706;12.340;2023-09-19T00:52:29;12.70;99.90
21622;DHT22;10973;46.706;12.340;2023-09-19T00:54:57;12.70;99.90
21622;DHT22;10973;46.706;12.340;2023-09-19T00:57:25;12.70;99.90
21622;DHT22;10973;46.706;12.340;2023-09-19T00:59:54;12.60;99.90
21622;DHT22;10973;46.706;12.340;2023-09-19T01:02:24;12.70;99.90
21622;DHT22;10973;46.706;12.340;2023-09-19T01:04:52;12.70;99.90
21622;DHT22;10973;46.706;12.340;2023-09-19T01:07:20;12.70;99.90
21622;DHT22;10973;46.706;12.340;2023-09-19T01:09:48;12.60;99.90
21622;DHT22;10973;46.706;12.340;2023-09-19T01:12:20;12.60;99.90
21622;DHT22;10973;46.706;12.340;2023-09-19T01:15:01;12.60;99.90
21622;DHT22;10973;46.706;12.340;2023-09-19T01:17:42;12.60;99.90
21622;DHT22;10973;46.706;12.340;2023-09-19T01:20:44;12.50;99.90
21622;DHT22;10973;46.706;12.340;2023-09-19T01:23:23;12.60;99.90
21622;DHT22;10973;46.706;12.340;2023-09-19T01:26:55;12.60;99.90
21622;DHT22;10973;46.706;12.340;2023-09-19T01:29:47;12.60;99.90
21622;DHT22;10973;46.706;12.340;2023-09-19T01:32:19;12.50;99.90
21622;DHT22;10973;46.706;12.340;2023-09-19T01:34:55;12.50;99.90
21622;DHT22;10973;46.706;12.340;2023-09-19T01:37:24;12.60;99.90
21622;DHT22;10973;46.706;12.340;2023-09-19T01:40:03;12.50;99.90
21622;DHT22;10973;46.706;12.340;2023-09-19T01:48:40;12.50;99.90
21622;DHT22;10973;46.706;12.340;2023-09-19T01:51:11;12.50;99.90
21622;DHT22;10973;46.706;12.340;2023-09-19T01:56:42;12.60;99.90
21622;DHT22;10973;46.706;12.340;2023-09-19T01:59:20;12.40;99.90
21622;DHT22;10973;46.706;12.340;2023-09-19T03:32:47;12.20;99.90
21622;DHT22;10973;46.706;12.340;2023-09-19T03:35:16;12.00;99.90
21622;DHT22;10973;46.706;12.340;2023-09-19T03:37:44;11.80;99.90
21622;DHT22;10973;46.706;12.340;2023-09-19T03:40:12;11.80;99.90
21622;DHT22;10973;46.706;12.340;2023-09-19T03:42:40;11.80;99.90
21622;DHT22;10973;46.706;12.340;2023-09-19T03:45:09;11.70;99.90
21622;DHT22;10973;46.706;12.340;2023-09-19T03:47:36;11.60;99.90
21622;DHT22;10973;46.706;12.340;2023-09-19T03:50:05;11.70;99.90
21622;DHT22;10973;46.706;12.340;2023-09-19T03:52:32;11.70;99.90
21622;DHT22;10973;46.706;12.340;2023-09-19T03:55:00;11.70;99.90
21622;DHT22;10973;46.706;12.340;2023-09-19T03:57:28;11.70;99.90
21622;DHT22;10973;46.706;12.340;2023-09-19T03:59:55;11.60;99.90
21622;DHT22;10973;46.706;12.340;2023-09-19T04:02:23;11.50;99.90
21622;DHT22;10973;46.706;12.340;2023-09-19T04:04:52;11.50;99.90
21622;DHT22;10973;46.706;12.340;2023-09-19T04:07:20;11.50;99.90
21622;DHT22;10973;46.706;12.340;2023-09-19T04:09:47;11.40;99.90
21622;DHT22;10973;46.706;12.340;2023-09-19T04:12:15;11.50;99.90
21622;DHT22;10973;46.706;12.340;2023-09-19T04:14:43;11.60;99.90
21622;DHT22;10973;46.706;12.340;2023-09-19T04:17:11;11.60;99.90
21622;DHT22;10973;46.706;12.340;2023-09-19T04:19:38;11.50;99.90
21622;DHT22;10973;46.706;12.340;2023-09-19T04:22:06;11.60;99.90
21622;DHT22;10973;46.706;12.340;2023-09-19T04:24:33;11.50;99.90
21622;DHT22;10973;46.706;12.340;2023-09-19T04:27:01;11.30;99.90
21622;DHT22;10973;46.706;12.340;2023-09-19T04:29:28;11.40;99.90
21622;DHT22;10973;46.706;12.340;2023-09-19T04:31:56;11.40;99.90
21622;DHT22;10973;46.706;12.340;2023-09-19T04:34:24;11.40;99.90
21622;DHT22;10973;46.706;12.340;2023-09-19T04:36:51;11.30;99.90
21622;DHT22;10973;46.706;12.340;2023-09-19T04:39:19;11.40;99.90
21622;DHT22;10973;46.706;12.340;2023-09-19T04:41:46;11.40;99.90
21622;DHT22;10973;46.706;12.340;2023-09-19T04:44:13;11.30;99.90
21622;DHT22;10973;46.706;12.340;2023-09-19T04:46:41;11.40;99.90
21622;DHT22;10973;46.706;12.340;2023-09-19T04:49:09;11.40;99.90
21622;DHT22;10973;46.706;12.340;2023-09-19T04:51:36;11.40;99.90
21622;DHT22;10973;46.706;12.340;2023-09-19T04:54:04;11.40;99.90
21622;DHT22;10973;46.706;12.340;2023-09-19T04:56:31;11.40;99.90
21622;DHT22;10973;46.706;12.340;2023-09-19T04:58:59;11.40;99.90
21622;DHT22;10973;46.706;12.340;2023-09-19T05:01:27;11.40;99.90
21622;DHT22;10973;46.706;12.340;2023-09-19T05:03:54;11.40;99.90
21622;DHT22;10973;46.706;12.340;2023-09-19T05:06:22;11.40;99.90
21622;DHT22;10973;46.706;12.340;2023-09-19T05:08:50;11.40;99.90
21622;DHT22;10973;46.706;12.340;2023-09-19T05:11:18;11.50;99.90
21622;DHT22;10973;46.706;12.340;2023-09-19T05:13:46;11.50;99.90
21622;DHT22;10973;46.706;12.340;2023-09-19T05:16:14;11.50;99.90
21622;DHT22;10973;46.706;12.340;2023-09-19T05:18:49;11.50;99.90
21622;DHT22;10973;46.706;12.340;2023-09-19T05:21:17;11.50;99.90
21622;DHT22;10973;46.706;12.340;2023-09-19T05:23:45;11.40;99.90
21622;DHT22;10973;46.706;12.340;2023-09-19T05:26:12;11.40;99.90
21622;DHT22;10973;46.706;12.340;2023-09-19T05:28:40;11.50;99.90
21622;DHT22;10973;46.706;12.340;2023-09-19T05:31:08;11.40;99.90
21622;DHT22;10973;46.706;12.340;2023-09-19T05:33:36;11.50;99.90
21622;DHT22;10973;46.706;12.340;2023-09-19T05:36:04;11.40;99.90
21622;DHT22;10973;46.706;12.340;2023-09-19T05:38:31;11.40;99.90
21622;DHT22;10973;46.706;12.340;2023-09-19T05:40:59;11.50;99.90
21622;DHT22;10973;46.706;12.340;2023-09-19T05:43:26;11.50;99.90
21622;DHT22;10973;46.706;12.340;2023-09-19T05:45:54;11.50;99.90
21622;DHT22;10973;46.706;12.340;2023-09-19T05:48:22;11.50;99.90
21622;DHT22;10973;46.706;12.340;2023-09-19T05:50:49;11.60;99.90
21622;DHT22;10973;46.706;12.340;2023-09-19T05:53:17;11.50;99.90
21622;DHT22;10973;46.706;12.340;2023-09-19T05:55:44;11.50;99.90
21622;DHT22;10973;46.706;12.340;2023-09-19T05:58:12;11.60;99.90
21622;DHT22;10973;46.706;12.340;2023-09-19T06:00:40;11.70;99.90
21622;DHT22;10973;46.706;12.340;2023-09-19T06:03:07;11.80;99.90
21622;DHT22;10973;46.706;12.340;2023-09-19T06:05:34;11.80;99.90
21622;DHT22;10973;46.706;12.340;2023-09-19T06:08:02;11.80;99.90
21622;DHT22;10973;46.706;12.340;2023-09-19T06:10:30;11.80;99.90
21622;DHT22;10973;46.706;12.340;2023-09-19T06:12:57;11.90;99.90
21622;DHT22;10973;46.706;12.340;2023-09-19T06:15:25;11.90;99.90
21622;DHT22;10973;46.706;12.340;2023-09-19T06:17:54;11.90;99.90
21622;DHT22;10973;46.706;12.340;2023-09-19T06:20:24;12.00;99.90
21622;DHT22;10973;46.706;12.340;2023-09-19T06:22:54;12.00;99.90
21622;DHT22;10973;46.706;12.340;2023-09-19T06:25:22;12.00;99.90
21622;DHT22;10973;46.706;12.340;2023-09-19T06:27:52;12.00;99.90
21622;DHT22;10973;46.706;12.340;2023-09-19T06:30:20;12.10;99.90
21622;DHT22;10973;46.706;12.340;2023-09-19T06:32:48;12.10;99.90
21622;DHT22;10973;46.706;12.340;2023-09-19T06:35:17;12.10;99.90
21622;DHT22;10973;46.706;12.340;2023-09-19T06:37:44;12.10;99.90
21622;DHT22;10973;46.706;12.340;2023-09-19T06:40:12;12.10;99.90
21622;DHT22;10973;46.706;12.340;2023-09-19T06:42:42;12.10;99.90
21622;DHT22;10973;46.706;12.340;2023-09-19T06:45:11;12.10;99.90
21622;DHT22;10973;46.706;12.340;2023-09-19T06:47:39;12.10;99.90
21622;DHT22;10973;46.706;12.340;2023-09-19T06:50:07;12.10;99.90
21622;DHT22;10973;46.706;12.340;2023-09-19T06:52:35;12.10;99.90
21622;DHT22;10973;46.706;12.340;2023-09-19T06:55:03;12.10;99.90
21622;DHT22;10973;46.706;12.340;2023-09-19T06:57:30;12.20;99.90
21622;DHT22;10973;46.706;12.340;2023-09-19T06:59:58;12.20;99.90
21622;DHT22;10973;46.706;12.340;2023-09-19T07:02:25;12.20;99.90
21622;DHT22;10973;46.706;12.340;2023-09-19T07:04:53;12.30;99.90
21622;DHT22;10973;46.706;12.340;2023-09-19T07:07:20;12.20;99.90
21622;DHT22;10973;46.706;12.340;2023-09-19T07:09:48;12.30;99.90
21622;DHT22;10973;46.706;12.340;2023-09-19T07:12:15;12.30;99.90
21622;DHT22;10973;46.706;12.340;2023-09-19T07:14:43;12.30;99.90
21622;DHT22;10973;46.706;12.340;2023-09-19T07:17:10;12.40;99.90
21622;DHT22;10973;46.706;12.340;2023-09-19T07:19:38;12.40;99.90
21622;DHT22;10973;46.706;12.340;2023-09-19T07:22:05;12.50;99.90
21622;DHT22;10973;46.706;12.340;2023-09-19T07:24:33;12.50;99.90
21622;DHT22;10973;46.706;12.340;2023-09-19T07:27:00;12.50;99.90
21622;DHT22;10973;46.706;12.340;2023-09-19T07:29:27;12.60;99.90
21622;DHT22;10973;46.706;12.340;2023-09-19T07:31:55;13.10;99.90
21622;DHT22;10973;46.706;12.340;2023-09-19T07:34:22;12.80;99.90
21622;DHT22;10973;46.706;12.340;2023-09-19T07:36:50;12.80;99.90
21622;DHT22;10973;46.706;12.340;2023-09-19T07:39:18;12.80;99.90
21622;DHT22;10973;46.706;12.340;2023-09-19T07:41:49;12.80;99.90
21622;DHT22;10973;46.706;12.340;2023-09-19T07:44:17;12.80;99.90
21622;DHT22;10973;46.706;12.340;2023-09-19T07:46:45;12.80;99.90
21622;DHT22;10973;46.706;12.340;2023-09-19T07:49:12;12.80;99.90
21622;DHT22;10973;46.706;12.340;2023-09-19T07:51:40;13.00;99.90
21622;DHT22;10973;46.706;12.340;2023-09-19T07:54:08;13.10;99.90
21622;DHT22;10973;46.706;12.340;2023-09-19T07:56:35;13.00;99.90
21622;DHT22;10973;46.706;12.340;2023-09-19T07:59:03;13.10;99.90
21622;DHT22;10973;46.706;12.340;2023-09-19T08:01:30;13.10;99.90
21622;DHT22;10973;46.706;12.340;2023-09-19T08:03:58;13.20;99.90
21622;DHT22;10973;46.706;12.340;2023-09-19T08:06:26;13.20;99.90
21622;DHT22;10973;46.706;12.340;2023-09-19T08:08:53;13.30;99.90
21622;DHT22;10973;46.706;12.340;2023-09-19T08:11:21;13.50;99.90
21622;DHT22;10973;46.706;12.340;2023-09-19T08:13:48;13.50;99.90
21622;DHT22;10973;46.706;12.340;2023-09-19T08:16:30;13.60;99.90
21622;DHT22;10973;46.706;12.340;2023-09-19T08:18:57;13.60;99.90
21622;DHT22;10973;46.706;12.340;2023-09-19T08:21:28;13.60;99.90
21622;DHT22;10973;46.706;12.340;2023-09-19T08:23:55;13.60;99.90
21622;DHT22;10973;46.706;12.340;2023-09-19T08:26:23;13.70;99.90
21622;DHT22;10973;46.706;12.340;2023-09-19T08:28:51;13.70;99.90
21622;DHT22;10973;46.706;12.340;2023-09-19T08:31:18;13.80;99.90
21622;DHT22;10973;46.706;12.340;2023-09-19T08:33:46;13.70;99.90
21622;DHT22;10973;46.706;12.340;2023-09-19T08:36:13;13.80;99.90
21622;DHT22;10973;46.706;12.340;2023-09-19T08:38:41;13.80;99.90
21622;DHT22;10973;46.706;12.340;2023-09-19T08:41:08;13.80;99.90
21622;DHT22;10973;46.706;12.340;2023-09-19T08:43:36;13.70;99.90
21622;DHT22;10973;46.706;12.340;2023-09-19T08:46:11;13.80;99.90
21622;DHT22;10973;46.706;12.340;2023-09-19T08:49:58;13.80;99.90
21622;DHT22;10973;46.706;12.340;2023-09-19T08:52:27;13.70;99.90
21622;DHT22;10973;46.706;12.340;2023-09-19T08:55:02;13.80;99.90
21622;DHT22;10973;46.706;12.340;2023-09-19T08:57:34;13.70;99.90
21622;DHT22;10973;46.706;12.340;2023-09-19T09:00:04;13.80;99.90
21622;DHT22;10973;46.706;12.340;2023-09-19T09:02:33;13.90;99.90
21622;DHT22;10973;46.706;12.340;2023-09-19T09:05:04;13.90;99.90
21622;DHT22;10973;46.706;12.340;2023-09-19T09:07:33;13.90;99.90
21622;DHT22;10973;46.706;12.340;2023-09-19T09:10:02;14.00;99.90
21622;DHT22;10973;46.706;12.340;2023-09-19T09:12:30;14.10;99.90
21622;DHT22;10973;46.706;12.340;2023-09-19T09:14:58;14.30;99.90
21622;DHT22;10973;46.706;12.340;2023-09-19T09:17:26;14.20;99.90
21622;DHT22;10973;46.706;12.340;2023-09-19T09:19:54;14.20;99.90
21622;DHT22;10973;46.706;12.340;2023-09-19T09:22:22;14.30;99.90
21622;DHT22;10973;46.706;12.340;2023-09-19T09:24:59;14.40;99.90
21622;DHT22;10973;46.706;12.340;2023-09-19T09:27:27;14.50;99.90
21622;DHT22;10973;46.706;12.340;2023-09-19T09:29:54;14.60;99.90
21622;DHT22;10973;46.706;12.340;2023-09-19T09:32:29;14.60;99.90
21622;DHT22;10973;46.706;12.340;2023-09-19T09:34:59;14.60;99.90
21622;DHT22;10973;46.706;12.340;2023-09-19T09:37:29;14.70;99.90
21622;DHT22;10973;46.706;12.340;2023-09-19T09:40:01;14.80;99.90
21622;DHT22;10973;46.706;12.340;2023-09-19T09:42:34;14.80;99.90
21622;DHT22;10973;46.706;12.340;2023-09-19T09:45:17;14.90;99.90
21622;DHT22;10973;46.706;12.340;2023-09-19T09:47:47;15.00;99.90
21622;DHT22;10973;46.706;12.340;2023-09-19T09:52:56;15.10;99.90
21622;DHT22;10973;46.706;12.340;2023-09-19T09:55:24;15.40;99.90
21622;DHT22;10973;46.706;12.340;2023-09-19T09:58:17;15.30;99.90
21622;DHT22;10973;46.706;12.340;2023-09-19T10:00:54;15.40;99.90
21622;DHT22;10973;46.706;12.340;2023-09-19T10:03:37;15.40;99.90
21622;DHT22;10973;46.706;12.340;2023-09-19T10:06:07;15.50;99.90
21622;DHT22;10973;46.706;12.340;2023-09-19T10:08:37;15.60;99.90
21622;DHT22;10973;46.706;12.340;2023-09-19T10:16:16;15.70;99.90
21622;DHT22;10973;46.706;12.340;2023-09-19T10:18:46;15.90;99.90
21622;DHT22;10973;46.706;12.340;2023-09-19T10:21:18;15.90;99.90
21622;DHT22;10973;46.706;12.340;2023-09-19T10:23:46;15.70;99.90
21622;DHT22;10973;46.706;12.340;2023-09-19T10:26:17;15.80;99.90
21622;DHT22;10973;46.706;12.340;2023-09-19T10:28:48;16.00;99.90
21622;DHT22;10973;46.706;12.340;2023-09-19T10:31:22;16.20;99.90
21622;DHT22;10973;46.706;12.340;2023-09-19T10:33:53;16.70;99.90
21622;DHT22;10973;46.706;12.340;2023-09-19T10:54:10;23.70;98.20
21622;DHT22;10973;46.706;12.340;2023-09-19T10:56:44;23.80;98.50
21622;DHT22;10973;46.706;12.340;2023-09-19T10:59:18;24.20;98.10
21622;DHT22;10973;46.706;12.340;2023-09-19T11:01:49;24.60;97.40
21622;DHT22;10973;46.706;12.340;2023-09-19T11:04:30;24.80;96.10
21622;DHT22;10973;46.706;12.340;2023-09-19T11:07:04;25.20;95.00
21622;DHT22;10973;46.706;12.340;2023-09-19T11:14:59;24.60;95.90
21622;DHT22;10973;46.706;12.340;2023-09-19T11:17:31;23.40;96.70
21622;DHT22;10973;46.706;12.340;2023-09-19T11:30:35;20.90;99.90
21622;DHT22;10973;46.706;12.340;2023-09-19T11:36:00;21.00;99.90
21622;DHT22;10973;46.706;12.340;2023-09-19T11:46:30;23.20;99.90
21622;DHT22;10973;46.706;12.340;2023-09-19T11:49:09;22.90;99.90
21622;DHT22;10973;46.706;12.340;2023-09-19T11:51:41;22.60;99.90
21622;DHT22;10973;46.706;12.340;2023-09-19T11:54:14;22.80;99.90
21622;DHT22;10973;46.706;12.340;2023-09-19T11:56:43;23.00;99.90
21622;DHT22;10973;46.706;12.340;2023-09-19T11:59:20;22.50;99.90
21622;DHT22;10973;46.706;12.340;2023-09-19T12:01:54;23.20;99.90
21622;DHT22;10973;46.706;12.340;2023-09-19T12:04:39;23.70;99.90
21622;DHT22;10973;46.706;12.340;2023-09-19T12:07:10;24.40;99.90
21622;DHT22;10973;46.706;12.340;2023-09-19T12:10:01;24.80;99.00
21622;DHT22;10973;46.706;12.340;2023-09-19T12:12:31;25.10;99.30
21622;DHT22;10973;46.706;12.340;2023-09-19T12:14:59;25.20;98.10
21622;DHT22;10973;46.706;12.340;2023-09-19T12:17:37;24.90;97.70
21622;DHT22;10973;46.706;12.340;2023-09-19T12:20:05;24.60;99.90
21622;DHT22;10973;46.706;12.340;2023-09-19T12:22:53;24.30;97.90
21622;DHT22;10973;46.706;12.340;2023-09-19T12:25:21;24.10;98.20
21622;DHT22;10973;46.706;12.340;2023-09-19T12:27:49;23.30;98.40
21622;DHT22;10973;46.706;12.340;2023-09-19T12:30:17;22.60;99.60
21622;DHT22;10973;46.706;12.340;2023-09-19T12:32:48;22.00;99.90
21622;DHT22;10973;46.706;12.340;2023-09-19T12:35:33;21.50;99.90
21622;DHT22;10973;46.706;12.340;2023-09-19T12:38:02;22.00;99.90
21622;DHT22;10973;46.706;12.340;2023-09-19T12:40:30;22.60;99.90
21622;DHT22;10973;46.706;12.340;2023-09-19T12:42:58;23.00;99.90
21622;DHT22;10973;46.706;12.340;2023-09-19T12:45:30;23.30;99.60
21622;DHT22;10973;46.706;12.340;2023-09-19T12:48:37;23.10;99.90
21622;DHT22;10973;46.706;12.340;2023-09-19T12:53:37;22.20;99.80
21622;DHT22;10973;46.706;12.340;2023-09-19T12:56:10;21.90;99.90
21622;DHT22;10973;46.706;12.340;2023-09-19T12:58:58;22.40;99.90
21622;DHT22;10973;46.706;12.340;2023-09-19T13:01:27;22.60;99.90
21622;DHT22;10973;46.706;12.340;2023-09-19T13:06:50;22.90;99.30
21622;DHT22;10973;46.706;12.340;2023-09-19T13:09:20;23.10;99.00
21622;DHT22;10973;46.706;12.340;2023-09-19T13:11:49;22.90;98.20
21622;DHT22;10973;46.706;12.340;2023-09-19T13:14:21;23.10;98.70
21622;DHT22;10973;46.706;12.340;2023-09-19T13:19:45;23.50;99.00
21622;DHT22;10973;46.706;12.340;2023-09-19T13:22:50;23.70;99.00
21622;DHT22;10973;46.706;12.340;2023-09-19T13:25:19;23.80;98.90
21622;DHT22;10973;46.706;12.340;2023-09-19T13:27:49;23.90;98.30
21622;DHT22;10973;46.706;12.340;2023-09-19T13:30:22;24.00;98.30
21622;DHT22;10973;46.706;12.340;2023-09-19T13:32:50;23.90;98.00
21622;DHT22;10973;46.706;12.340;2023-09-19T13:35:19;23.70;98.00
21622;DHT22;10973;46.706;12.340;2023-09-19T13:37:47;23.50;98.00
21622;DHT22;10973;46.706;12.340;2023-09-19T13:40:15;22.90;97.60
21622;DHT22;10973;46.706;12.340;2023-09-19T13:42:43;22.40;98.20
21622;DHT22;10973;46.706;12.340;2023-09-19T13:45:11;21.90;97.90
21622;DHT22;10973;46.706;12.340;2023-09-19T13:47:38;21.40;99.90
21622;DHT22;10973;46.706;12.340;2023-09-19T13:50:07;21.00;99.90
21622;DHT22;10973;46.706;12.340;2023-09-19T13:52:35;20.60;99.90
21622;DHT22;10973;46.706;12.340;2023-09-19T13:55:03;20.20;99.90
21622;DHT22;10973;46.706;12.340;2023-09-19T13:57:31;20.00;99.90
21622;DHT22;10973;46.706;12.340;2023-09-19T13:59:58;19.80;99.90
21622;DHT22;10973;46.706;12.340;2023-09-19T14:02:26;20.20;99.90
21622;DHT22;10973;46.706;12.340;2023-09-19T14:04:54;20.70;99.90
21622;DHT22;10973;46.706;12.340;2023-09-19T14:07:22;21.00;99.90
21622;DHT22;10973;46.706;12.340;2023-09-19T14:09:50;21.50;99.90
21622;DHT22;10973;46.706;12.340;2023-09-19T14:12:17;21.90;99.90
21622;DHT22;10973;46.706;12.340;2023-09-19T14:14:44;21.50;99.90
21622;DHT22;10973;46.706;12.340;2023-09-19T14:17:12;21.60;99.90
21622;DHT22;10973;46.706;12.340;2023-09-19T14:19:41;21.90;99.90
21622;DHT22;10973;46.706;12.340;2023-09-19T14:22:12;22.30;99.90
21622;DHT22;10973;46.706;12.340;2023-09-19T14:24:39;22.10;99.90
21622;DHT22;10973;46.706;12.340;2023-09-19T14:27:07;22.40;99.90
21622;DHT22;10973;46.706;12.340;2023-09-19T14:29:34;22.40;99.90
21622;DHT22;10973;46.706;12.340;2023-09-19T14:32:02;22.60;99.90
21622;DHT22;10973;46.706;12.340;2023-09-19T14:34:30;22.30;99.90
21622;DHT22;10973;46.706;12.340;2023-09-19T14:36:58;22.00;99.90
21622;DHT22;10973;46.706;12.340;2023-09-19T14:39:25;21.70;99.90
21622;DHT22;10973;46.706;12.340;2023-09-19T14:41:53;21.30;99.90
21622;DHT22;10973;46.706;12.340;2023-09-19T14:44:21;20.90;99.90
21622;DHT22;10973;46.706;12.340;2023-09-19T14:46:49;20.50;99.90
21622;DHT22;10973;46.706;12.340;2023-09-19T14:49:17;20.20;99.90
21622;DHT22;10973;46.706;12.340;2023-09-19T14:51:44;20.90;99.90
21622;DHT22;10973;46.706;12.340;2023-09-19T14:54:12;20.70;99.90
21622;DHT22;10973;46.706;12.340;2023-09-19T14:56:40;20.70;99.90
21622;DHT22;10973;46.706;12.340;2023-09-19T14:59:10;20.50;99.90
21622;DHT22;10973;46.706;12.340;2023-09-19T15:05:44;21.50;99.90
21622;DHT22;10973;46.706;12.340;2023-09-19T15:08:14;21.50;99.90
21622;DHT22;10973;46.706;12.340;2023-09-19T15:10:49;20.90;99.90
21622;DHT22;10973;46.706;12.340;2023-09-19T15:13:19;20.50;99.90
21622;DHT22;10973;46.706;12.340;2023-09-19T15:15:46;20.40;99.90
21622;DHT22;10973;46.706;12.340;2023-09-19T15:18:14;19.90;99.90
21622;DHT22;10973;46.706;12.340;2023-09-19T15:20:44;19.40;99.90
21622;DHT22;10973;46.706;12.340;2023-09-19T15:23:12;19.20;99.90
21622;DHT22;10973;46.706;12.340;2023-09-19T17:42:30;17.10;99.90
21622;DHT22;10973;46.706;12.340;2023-09-19T17:44:58;17.10;99.90
21622;DHT22;10973;46.706;12.340;2023-09-19T17:47:25;17.00;99.90
21622;DHT22;10973;46.706;12.340;2023-09-19T17:49:53;16.90;99.90
21622;DHT22;10973;46.706;12.340;2023-09-19T17:52:21;16.80;99.90
21622;DHT22;10973;46.706;12.340;2023-09-19T17:54:49;16.70;99.90
21622;DHT22;10973;46.706;12.340;2023-09-19T17:57:18;16.70;99.90
21622;DHT22;10973;46.706;12.340;2023-09-19T17:59:46;16.70;99.90
21622;DHT22;10973;46.706;12.340;2023-09-19T18:02:13;16.60;99.90
21622;DHT22;10973;46.706;12.340;2023-09-19T18:04:41;16.50;99.90
21622;DHT22;10973;46.706;12.340;2023-09-19T18:07:09;16.50;99.90
21622;DHT22;10973;46.706;12.340;2023-09-19T18:09:36;16.50;99.90
21622;DHT22;10973;46.706;12.340;2023-09-19T18:12:04;16.40;99.90
21622;DHT22;10973;46.706;12.340;2023-09-19T18:14:35;16.40;99.90
21622;DHT22;10973;46.706;12.340;2023-09-19T18:17:02;16.40;99.90
21622;DHT22;10973;46.706;12.340;2023-09-19T18:19:30;16.30;99.90
21622;DHT22;10973;46.706;12.340;2023-09-19T18:21:58;16.40;99.90
21622;DHT22;10973;46.706;12.340;2023-09-19T18:24:27;16.40;99.90
21622;DHT22;10973;46.706;12.340;2023-09-19T18:26:55;16.40;99.90
21622;DHT22;10973;46.706;12.340;2023-09-19T18:29:23;16.30;99.90
21622;DHT22;10973;46.706;12.340;2023-09-19T18:31:51;16.30;99.90
21622;DHT22;10973;46.706;12.340;2023-09-19T18:34:18;16.40;99.90
21622;DHT22;10973;46.706;12.340;2023-09-19T18:36:46;16.30;99.90
21622;DHT22;10973;46.706;12.340;2023-09-19T18:39:14;16.30;99.90
21622;DHT22;10973;46.706;12.340;2023-09-19T18:41:41;16.30;99.90
21622;DHT22;10973;46.706;12.340;2023-09-19T18:44:09;16.30;99.90
21622;DHT22;10973;46.706;12.340;2023-09-19T18:46:36;16.30;99.90
21622;DHT22;10973;46.706;12.340;2023-09-19T18:49:04;16.30;99.90
21622;DHT22;10973;46.706;12.340;2023-09-19T18:51:31;16.30;99.90
21622;DHT22;10973;46.706;12.340;2023-09-19T18:53:59;16.20;99.90
21622;DHT22;10973;46.706;12.340;2023-09-19T18:56:42;16.20;99.90
21622;DHT22;10973;46.706;12.340;2023-09-19T18:59:10;16.20;99.90
21622;DHT22;10973;46.706;12.340;2023-09-19T19:01:37;16.20;99.90
21622;DHT22;10973;46.706;12.340;2023-09-19T19:04:05;16.10;99.90
21622;DHT22;10973;46.706;12.340;2023-09-19T19:06:33;16.20;99.90
21622;DHT22;10973;46.706;12.340;2023-09-19T19:11:28;16.00;99.90
21622;DHT22;10973;46.706;12.340;2023-09-19T19:13:56;16.10;99.90
21622;DHT22;10973;46.706;12.340;2023-09-19T19:16:23;16.10;99.90
21622;DHT22;10973;46.706;12.340;2023-09-19T19:18:52;16.00;99.90
21622;DHT22;10973;46.706;12.340;2023-09-19T19:21:20;16.00;99.90
21622;DHT22;10973;46.706;12.340;2023-09-19T19:23:49;16.00;99.90
21622;DHT22;10973;46.706;12.340;2023-09-19T19:26:17;15.90;99.90
21622;DHT22;10973;46.706;12.340;2023-09-19T19:28:50;15.90;99.90
21622;DHT22;10973;46.706;12.340;2023-09-19T19:31:17;15.80;99.90
21622;DHT22;10973;46.706;12.340;2023-09-19T19:33:45;15.80;99.90
21622;DHT22;10973;46.706;12.340;2023-09-19T19:36:12;15.80;99.90
21622;DHT22;10973;46.706;12.340;2023-09-19T19:38:40;15.70;99.90
21622;DHT22;10973;46.706;12.340;2023-09-19T19:41:08;15.70;99.90
21622;DHT22;10973;46.706;12.340;2023-09-19T19:43:35;15.70;99.90
21622;DHT22;10973;46.706;12.340;2023-09-19T19:46:04;16.00;99.90
21622;DHT22;10973;46.706;12.340;2023-09-19T19:48:33;15.70;99.90
21622;DHT22;10973;46.706;12.340;2023-09-19T19:51:07;15.70;99.90
21622;DHT22;10973;46.706;12.340;2023-09-19T19:53:36;15.70;99.90
21622;DHT22;10973;46.706;12.340;2023-09-19T19:56:04;15.70;99.90
21622;DHT22;10973;46.706;12.340;2023-09-19T19:58:32;15.70;99.90
21622;DHT22;10973;46.706;12.340;2023-09-19T20:01:00;15.60;99.90
21622;DHT22;10973;46.706;12.340;2023-09-19T20:03:28;15.50;99.90
21622;DHT22;10973;46.706;12.340;2023-09-19T20:05:56;15.50;99.90
21622;DHT22;10973;46.706;12.340;2023-09-19T20:08:26;15.30;99.90
21622;DHT22;10973;46.706;12.340;2023-09-19T20:11:02;15.30;99.90
21622;DHT22;10973;46.706;12.340;2023-09-19T20:13:31;15.30;99.90
21622;DHT22;10973;46.706;12.340;2023-09-19T20:15:59;15.30;99.90
21622;DHT22;10973;46.706;12.340;2023-09-19T20:18:28;15.20;99.90
21622;DHT22;10973;46.706;12.340;2023-09-19T20:20:56;15.20;99.90
21622;DHT22;10973;46.706;12.340;2023-09-19T20:23:23;15.30;99.90
21622;DHT22;10973;46.706;12.340;2023-09-19T20:25:51;15.30;99.90
21622;DHT22;10973;46.706;12.340;2023-09-19T20:28:18;15.30;99.90
21622;DHT22;10973;46.706;12.340;2023-09-19T20:30:46;15.30;99.90
21622;DHT22;10973;46.706;12.340;2023-09-19T20:33:13;15.20;99.90
21622;DHT22;10973;46.706;12.340;2023-09-19T20:35:42;15.00;99.90